createdAt,value
2022-12-09T00:02:29.752Z,29.97
2022-12-09T00:05:02.153Z,29.90
2022-12-09T00:07:35.642Z,29.87
2022-12-09T00:10:08.676Z,30.51
2022-12-09T00:12:40.472Z,29.78
2022-12-09T00:15:11.967Z,30.52
2022-12-09T00:17:43.458Z,28.39
2022-12-09T00:20:15.158Z,28.56
2022-12-09T00:22:46.911Z,29.66
2022-12-09T00:25:18.546Z,29.26
2022-12-09T00:27:50.217Z,29.31
2022-12-09T00:30:21.715Z,29.98
2022-12-09T00:32:54.344Z,29.69
2022-12-09T00:35:25.899Z,29.76
2022-12-09T00:37:57.654Z,29.60
2022-12-09T00:40:29.447Z,29.03
2022-12-09T00:43:02.551Z,29.54
2022-12-09T00:45:34.358Z,29.17
2022-12-09T00:48:06.244Z,29.33
2022-12-09T00:50:39.293Z,28.90
2022-12-09T00:53:10.872Z,28.45
2022-12-09T00:55:42.665Z,28.28
2022-12-09T00:58:14.625Z,29.16
2022-12-09T01:00:46.269Z,29.22
2022-12-09T01:03:18.567Z,29.67
2022-12-09T01:05:50.986Z,28.60
2022-12-09T01:08:24.450Z,29.51
2022-12-09T01:10:56.353Z,29.48
2022-12-09T01:13:28.118Z,29.36
2022-12-09T01:15:59.734Z,29.85
2022-12-09T01:18:34.238Z,30.17
2022-12-09T01:21:06.008Z,28.16
2022-12-09T01:23:37.712Z,27.89
2022-12-09T01:26:09.805Z,28.45
2022-12-09T01:28:41.356Z,28.51
2022-12-09T01:31:17.054Z,27.17
2022-12-09T01:33:48.867Z,28.08
2022-12-09T01:36:24.167Z,26.21
2022-12-09T01:38:58.904Z,26.31
2022-12-09T01:41:31.446Z,25.43
2022-12-09T01:44:23.083Z,26.12
2022-12-09T01:46:57.427Z,27.46
2022-12-09T01:49:34.544Z,27.67
2022-12-09T01:52:16.423Z,27.32
2022-12-09T01:54:52.251Z,29.18
2022-12-09T01:57:28.028Z,28.31
2022-12-09T02:00:00.250Z,28.18
2022-12-09T02:02:37.037Z,28.13
2022-12-09T02:05:09.496Z,26.73
2022-12-09T02:07:43.767Z,26.79
2022-12-09T02:10:18.681Z,26.10
2022-12-09T02:13:24.176Z,26.98
2022-12-09T02:16:01.717Z,25.74
2022-12-09T02:19:08.333Z,26.69
2022-12-09T02:21:54.396Z,25.80
2022-12-09T02:24:35.403Z,25.78
2022-12-09T02:27:21.810Z,24.45
2022-12-09T02:30:17.108Z,23.92
2022-12-09T02:33:06.551Z,25.00
2022-12-09T02:35:50.529Z,24.82
2022-12-09T02:38:27.624Z,24.67
2022-12-09T02:41:17.920Z,23.95
2022-12-09T02:44:08.067Z,24.46
2022-12-09T02:46:42.861Z,24.64
2022-12-09T02:49:17.001Z,25.02
2022-12-09T02:51:50.497Z,24.02
2022-12-09T02:54:24.741Z,24.31
2022-12-09T02:57:07.157Z,25.57
2022-12-09T02:59:38.904Z,25.31
2022-12-09T03:02:29.168Z,25.85
2022-12-09T03:05:25.402Z,25.48
2022-12-09T03:08:12.311Z,25.92
2022-12-09T03:10:50.089Z,24.99
2022-12-09T03:13:44.591Z,25.90
2022-12-09T03:16:31.359Z,26.18
2022-12-09T03:19:31.595Z,26.01
2022-12-09T03:22:11.067Z,27.02
2022-12-09T03:24:52.124Z,27.68
2022-12-09T03:27:34.733Z,28.02
2022-12-09T03:30:10.546Z,27.00
2022-12-09T03:32:46.234Z,27.77
2022-12-09T03:35:25.365Z,27.23
2022-12-09T03:38:00.748Z,27.12
2022-12-09T03:40:34.440Z,27.02
2022-12-09T03:43:16.325Z,26.51
2022-12-09T03:45:49.606Z,27.04
2022-12-09T03:48:22.831Z,26.60
2022-12-09T03:51:02.422Z,26.49
2022-12-09T03:53:49.217Z,25.96
2022-12-09T03:56:31.337Z,25.82
2022-12-09T03:59:09.474Z,25.68
2022-12-09T04:01:44.672Z,25.42
2022-12-09T04:04:18.732Z,25.85
2022-12-09T04:06:53.841Z,26.66
2022-12-09T04:09:25.956Z,26.61
2022-12-09T04:11:57.556Z,26.54
2022-12-09T04:14:29.202Z,26.16
2022-12-09T04:17:01.059Z,25.60
2022-12-09T04:19:32.778Z,25.53
2022-12-09T04:22:04.912Z,24.78
2022-12-09T04:24:36.448Z,24.81
2022-12-09T04:27:08.016Z,24.63
2022-12-09T04:29:39.866Z,24.33
2022-12-09T04:32:11.831Z,25.35
2022-12-09T04:34:43.548Z,25.39
2022-12-09T04:37:15.230Z,25.42
2022-12-09T04:39:46.889Z,25.43
2022-12-09T04:42:18.481Z,25.72
2022-12-09T04:44:50.246Z,25.09
2022-12-09T04:47:22.097Z,25.87
2022-12-09T04:49:53.800Z,24.92
2022-12-09T04:52:25.574Z,25.54
2022-12-09T04:54:57.151Z,25.59
2022-12-09T04:57:29.032Z,25.13
2022-12-09T05:00:00.704Z,25.42
2022-12-09T05:02:32.927Z,24.08
2022-12-09T05:05:05.676Z,24.38
2022-12-09T05:07:38.041Z,24.66
2022-12-09T05:10:10.643Z,23.56
2022-12-09T05:12:42.648Z,22.00
2022-12-09T05:15:14.529Z,22.19
2022-12-09T05:17:46.264Z,21.81
2022-12-09T05:20:18.264Z,20.80
2022-12-09T05:22:51.991Z,20.79
2022-12-09T05:25:23.950Z,20.66
2022-12-09T05:27:55.670Z,21.30
2022-12-09T05:30:27.246Z,20.46
2022-12-09T05:32:59.253Z,20.59
2022-12-09T05:35:31.632Z,20.60
2022-12-09T05:38:03.424Z,20.24
2022-12-09T05:40:35.337Z,20.74
2022-12-09T05:43:07.295Z,20.49
2022-12-09T05:45:39.091Z,20.66
2022-12-09T05:48:11.122Z,21.22
2022-12-09T05:50:42.870Z,22.05
2022-12-09T05:53:14.600Z,21.55
2022-12-09T05:55:46.431Z,21.85
2022-12-09T05:58:18.368Z,21.45
2022-12-09T06:00:50.886Z,20.98
2022-12-09T06:03:24.032Z,22.15
2022-12-09T06:05:56.107Z,21.99
2022-12-09T06:08:28.220Z,21.99
2022-12-09T06:10:59.921Z,21.49
2022-12-09T06:13:32.130Z,22.64
2022-12-09T06:16:06.162Z,22.31
2022-12-09T06:18:38.565Z,21.19
2022-12-09T06:21:13.385Z,21.50
2022-12-09T06:23:45.631Z,21.63
2022-12-09T06:26:30.135Z,21.81
2022-12-09T06:29:01.879Z,21.89
2022-12-09T06:31:33.667Z,21.28
2022-12-09T06:34:06.156Z,21.57
2022-12-09T06:36:38.059Z,20.95
2022-12-09T06:39:11.113Z,20.50
2022-12-09T06:41:43.248Z,20.54
2022-12-09T06:44:21.707Z,20.76
2022-12-09T06:46:56.145Z,20.31
2022-12-09T06:49:27.981Z,20.42
2022-12-09T06:51:59.980Z,20.14
2022-12-09T06:54:31.533Z,19.90
2022-12-09T06:57:03.205Z,19.60
2022-12-09T06:59:35.240Z,20.09
2022-12-09T07:02:08.129Z,19.56
2022-12-09T07:04:40.420Z,20.06
2022-12-09T07:07:12.216Z,19.86
2022-12-09T07:09:44.455Z,19.56
2022-12-09T07:12:16.554Z,19.94
2022-12-09T07:14:48.554Z,19.45
2022-12-09T07:17:21.631Z,19.95
2022-12-09T07:19:53.562Z,19.45
2022-12-09T07:22:25.466Z,19.39
2022-12-09T07:24:57.249Z,19.48
2022-12-09T07:27:29.190Z,18.46
2022-12-09T07:30:01.170Z,17.62
2022-12-09T07:32:33.098Z,17.78
2022-12-09T07:35:05.339Z,17.14
2022-12-09T07:37:37.418Z,17.76
2022-12-09T07:40:09.271Z,17.74
2022-12-09T07:42:41.044Z,16.89
2022-12-09T07:45:14.488Z,16.80
2022-12-09T07:47:50.082Z,16.69
2022-12-09T07:50:21.724Z,16.18
2022-12-09T07:52:53.661Z,16.42
2022-12-09T07:55:25.669Z,16.19
2022-12-09T07:57:57.828Z,15.45
2022-12-09T08:00:29.570Z,16.24
2022-12-09T08:03:01.672Z,15.66
2022-12-09T08:05:33.772Z,15.85
2022-12-09T08:08:05.605Z,15.31
2022-12-09T08:10:40.129Z,15.68
2022-12-09T08:13:14.834Z,16.11
2022-12-09T08:15:47.666Z,16.10
2022-12-09T08:18:20.436Z,17.28
2022-12-09T08:20:53.439Z,18.48
2022-12-09T08:23:26.331Z,18.00
2022-12-09T08:26:01.816Z,18.02
2022-12-09T08:28:34.138Z,18.13
2022-12-09T08:31:12.488Z,17.60
2022-12-09T08:33:45.071Z,17.60
2022-12-09T08:36:21.069Z,17.36
2022-12-09T08:38:53.840Z,17.23
2022-12-09T08:41:28.775Z,17.36
2022-12-09T08:44:03.505Z,16.62
2022-12-09T08:46:37.506Z,17.09
2022-12-09T08:49:10.991Z,17.60
2022-12-09T08:51:42.836Z,17.96
2022-12-09T08:54:14.622Z,17.77
2022-12-09T08:56:48.610Z,18.21
2022-12-09T08:59:21.493Z,18.55
2022-12-09T09:01:53.533Z,18.49
2022-12-09T09:04:25.387Z,18.42
2022-12-09T09:06:57.910Z,18.73
2022-12-09T09:09:32.384Z,19.11
2022-12-09T09:12:04.259Z,19.01
2022-12-09T09:14:35.836Z,19.68
2022-12-09T09:17:07.741Z,19.55
2022-12-09T09:19:39.918Z,19.68
2022-12-09T09:22:11.851Z,19.48
2022-12-09T09:24:43.616Z,18.91
2022-12-09T09:27:15.384Z,17.99
2022-12-09T09:29:47.571Z,17.65
2022-12-09T09:32:19.693Z,16.19
2022-12-09T09:34:54.486Z,15.82
2022-12-09T09:37:26.533Z,14.93
2022-12-09T09:40:06.196Z,14.74
2022-12-09T09:42:54.938Z,12.98
2022-12-09T09:45:28.732Z,11.27
2022-12-09T09:48:14.929Z,11.32
2022-12-09T09:50:59.276Z,10.72
2022-12-09T09:53:36.432Z,10.53
2022-12-09T09:56:19.848Z,10.63
2022-12-09T09:59:10.660Z,10.78
2022-12-09T10:01:53.524Z,10.06
2022-12-09T10:04:52.764Z,10.42
2022-12-09T10:07:39.502Z,10.64
2022-12-09T10:10:36.820Z,10.08
2022-12-09T10:13:41.964Z,10.50
2022-12-09T10:16:17.004Z,9.80
2022-12-09T10:19:15.843Z,9.47
2022-12-09T10:21:51.395Z,9.86
2022-12-09T10:24:32.875Z,9.75
2022-12-09T10:27:29.845Z,8.63
2022-12-09T10:30:06.979Z,8.59
2022-12-09T10:32:40.479Z,8.05
2022-12-09T10:35:31.114Z,7.46
2022-12-09T10:38:13.285Z,7.04
2022-12-09T10:40:48.166Z,7.17
2022-12-09T10:43:40.340Z,7.06
2022-12-09T10:46:19.521Z,7.06
2022-12-09T10:48:55.940Z,7.33
2022-12-09T10:51:36.697Z,7.83
2022-12-09T10:54:21.764Z,7.69
2022-12-09T10:57:02.885Z,7.47
2022-12-09T10:59:36.148Z,7.77
2022-12-09T11:02:07.991Z,7.65
2022-12-09T11:04:43.237Z,7.70
2022-12-09T11:07:25.414Z,7.81
2022-12-09T11:09:57.689Z,7.97
2022-12-09T11:12:33.380Z,8.56
2022-12-09T11:15:35.314Z,8.95
2022-12-09T11:18:37.387Z,8.63
2022-12-09T11:21:35.044Z,9.12
2022-12-09T11:24:20.617Z,9.01
2022-12-09T11:26:52.931Z,10.14
2022-12-09T11:29:24.829Z,10.34
2022-12-09T11:31:57.725Z,12.14
2022-12-09T11:34:29.918Z,13.00
2022-12-09T11:37:02.787Z,14.81
2022-12-09T11:39:36.253Z,16.45
2022-12-09T11:42:19.606Z,15.86
2022-12-09T11:44:58.155Z,15.12
2022-12-09T11:50:30.128Z,13.83
2022-12-09T11:53:12.840Z,13.88
2022-12-09T11:55:49.286Z,15.36
2022-12-09T11:58:47.950Z,15.05
2022-12-09T12:01:54.612Z,14.47
2022-12-09T12:04:41.643Z,13.00
2022-12-09T12:07:25.812Z,12.45
2022-12-09T12:09:59.335Z,12.74
2022-12-09T12:12:42.912Z,12.31
2022-12-09T12:15:37.056Z,11.78
2022-12-09T12:18:19.031Z,11.50
2022-12-09T12:21:28.554Z,12.24
2022-12-09T12:24:06.078Z,12.54
2022-12-09T12:26:50.854Z,13.40
2022-12-09T12:30:00.448Z,14.41
2022-12-09T12:33:59.691Z,13.81
2022-12-09T12:36:08.324Z,13.44
2022-12-09T12:39:04.870Z,12.72
2022-12-09T12:41:55.989Z,13.56
2022-12-09T12:44:42.091Z,12.46
2022-12-09T12:47:28.724Z,11.59
2022-12-09T12:50:06.793Z,11.47
2022-12-09T12:53:00.725Z,11.83
2022-12-09T12:55:45.970Z,12.05
2022-12-09T12:58:56.317Z,11.68
2022-12-09T13:01:27.993Z,11.56
2022-12-09T13:04:18.426Z,11.78
2022-12-09T13:07:22.692Z,11.00
2022-12-09T13:10:24.514Z,11.38
2022-12-09T13:12:58.622Z,11.34
2022-12-09T13:15:37.500Z,11.27
2022-12-09T13:18:18.726Z,11.16
2022-12-09T13:20:53.707Z,10.49
2022-12-09T13:23:43.624Z,10.75
2022-12-09T13:26:49.784Z,11.50
2022-12-09T13:29:21.381Z,11.09
2022-12-09T13:32:12.097Z,11.07
2022-12-09T13:34:50.447Z,11.09
2022-12-09T13:37:31.508Z,11.93
2022-12-09T13:40:32.030Z,11.66
2022-12-09T13:43:03.757Z,11.46
2022-12-09T13:45:49.434Z,11.22
2022-12-09T13:48:21.364Z,11.12
2022-12-09T13:50:55.124Z,11.76
2022-12-09T13:53:46.222Z,11.44
2022-12-09T13:56:26.517Z,11.65
2022-12-09T13:59:16.839Z,11.26
2022-12-09T14:01:54.782Z,11.47
2022-12-09T14:04:30.528Z,11.52
2022-12-09T14:07:16.109Z,11.23
2022-12-09T14:09:54.404Z,11.80
2022-12-09T14:12:28.409Z,11.62
2022-12-09T14:15:01.159Z,12.25
2022-12-09T14:17:33.216Z,12.36
2022-12-09T14:20:24.254Z,12.00
2022-12-09T14:23:11.378Z,11.95
2022-12-09T14:25:54.153Z,12.61
2022-12-09T14:28:37.690Z,12.75
2022-12-09T14:31:09.553Z,13.04
2022-12-09T14:33:47.412Z,13.21
2022-12-09T14:36:22.976Z,13.10
2022-12-09T14:42:00.735Z,12.42
2022-12-09T14:44:52.843Z,12.49
2022-12-09T14:47:39.409Z,12.51
2022-12-09T14:50:23.288Z,13.17
2022-12-09T14:53:02.615Z,12.85
2022-12-09T14:55:40.189Z,13.20
2022-12-09T14:58:20.175Z,15.20
2022-12-09T15:01:06.140Z,16.49
2022-12-09T15:03:45.207Z,17.02
2022-12-09T15:06:19.508Z,17.38
2022-12-09T15:08:57.541Z,17.40
2022-12-09T15:11:35.257Z,17.97
2022-12-09T15:14:09.276Z,16.56
2022-12-09T15:16:46.407Z,16.83
2022-12-09T15:19:58.570Z,16.58
2022-12-09T15:22:24.234Z,16.10
2022-12-09T15:24:55.765Z,16.89
2022-12-09T15:27:27.292Z,17.23
2022-12-09T15:29:58.977Z,18.16
2022-12-09T15:32:30.618Z,18.67
2022-12-09T15:35:24.639Z,18.38
2022-12-09T15:38:03.205Z,16.92
2022-12-09T15:40:36.777Z,16.87
2022-12-09T15:43:13.323Z,16.75
2022-12-09T15:45:45.229Z,15.79
2022-12-09T15:48:22.553Z,16.28
2022-12-09T15:51:00.973Z,15.92
2022-12-09T15:53:45.216Z,15.84
2022-12-09T15:56:54.485Z,15.77
2022-12-09T15:59:32.837Z,15.47
2022-12-09T16:02:07.789Z,15.51
2022-12-09T16:04:45.967Z,15.48
2022-12-09T16:07:21.448Z,13.92
2022-12-09T16:10:11.165Z,13.31
2022-12-09T16:12:44.304Z,12.66
2022-12-09T16:15:40.228Z,12.93
2022-12-09T16:18:19.811Z,12.82
2022-12-09T16:21:02.981Z,12.60
2022-12-09T16:23:34.831Z,12.52
2022-12-09T16:26:07.594Z,12.72
2022-12-09T16:28:42.440Z,12.51
2022-12-09T16:31:18.128Z,12.71
2022-12-09T16:33:50.307Z,12.68
2022-12-09T16:36:28.442Z,12.72
2022-12-09T16:39:09.233Z,12.68
2022-12-09T16:41:53.056Z,13.77
2022-12-09T16:44:27.389Z,13.75
2022-12-09T16:47:14.000Z,13.81
2022-12-09T16:49:48.349Z,15.17
2022-12-09T16:52:25.218Z,14.45
2022-12-09T16:54:57.099Z,14.42
2022-12-09T16:57:28.769Z,13.61
2022-12-09T17:00:00.318Z,14.24
2022-12-09T17:02:41.570Z,13.89
2022-12-09T17:05:14.084Z,13.80
2022-12-09T17:07:45.671Z,13.68
2022-12-09T17:10:17.682Z,13.18
2022-12-09T17:12:49.434Z,12.43
2022-12-09T17:15:21.450Z,12.90
2022-12-09T17:17:53.118Z,12.86
2022-12-09T17:20:24.653Z,12.36
2022-12-09T17:22:56.269Z,12.22
2022-12-09T17:25:28.025Z,12.67
2022-12-09T17:28:06.300Z,12.47
2022-12-09T17:30:38.998Z,12.69
2022-12-09T17:33:10.602Z,12.27
2022-12-09T17:35:42.262Z,12.27
2022-12-09T17:38:14.012Z,13.27
2022-12-09T17:40:45.635Z,13.47
2022-12-09T17:43:17.615Z,13.62
2022-12-09T17:45:49.398Z,14.49
2022-12-09T17:48:20.990Z,14.51
2022-12-09T17:50:52.532Z,14.79
2022-12-09T17:53:24.141Z,14.47
2022-12-09T17:55:55.646Z,14.31
2022-12-09T17:58:27.249Z,14.40
2022-12-09T18:00:58.905Z,14.54
2022-12-09T18:03:54.913Z,14.11
2022-12-09T18:06:22.552Z,14.31
2022-12-09T18:08:54.603Z,14.64
2022-12-09T18:11:26.892Z,14.00
2022-12-09T18:13:58.569Z,15.00
2022-12-09T18:16:30.413Z,15.36
2022-12-09T18:19:08.376Z,15.46
2022-12-09T18:21:39.961Z,15.80
2022-12-09T18:24:12.102Z,16.31
2022-12-09T18:26:43.799Z,15.42
2022-12-09T18:29:15.412Z,15.46
2022-12-09T18:31:47.703Z,15.81
2022-12-09T18:34:19.757Z,16.61
2022-12-09T18:36:51.987Z,16.54
2022-12-09T18:39:23.551Z,15.13
2022-12-09T18:41:55.169Z,16.02
2022-12-09T18:44:26.845Z,15.71
2022-12-09T18:46:58.477Z,16.30
2022-12-09T18:49:30.265Z,16.18
2022-12-09T18:52:01.827Z,15.85
2022-12-09T18:54:33.585Z,16.52
2022-12-09T18:57:05.314Z,16.57
2022-12-09T18:59:37.128Z,15.98
2022-12-09T19:02:10.238Z,15.14
2022-12-09T19:04:42.147Z,15.57
2022-12-09T19:07:14.669Z,15.17
2022-12-09T19:09:46.700Z,15.61
2022-12-09T19:12:45.744Z,16.34
2022-12-09T19:15:10.832Z,16.92
2022-12-09T19:17:42.678Z,17.36
2022-12-09T19:20:14.389Z,17.51
2022-12-09T19:22:46.474Z,18.16
2022-12-09T19:25:18.274Z,17.18
2022-12-09T19:27:50.032Z,16.95
2022-12-09T19:30:21.758Z,17.69
2022-12-09T19:32:53.898Z,17.20
2022-12-09T19:35:25.858Z,17.74
2022-12-09T19:38:01.189Z,17.44
2022-12-09T19:40:33.435Z,17.49
2022-12-09T19:43:05.159Z,18.31
2022-12-09T19:45:36.907Z,18.08
2022-12-09T19:48:08.609Z,17.56
2022-12-09T19:50:40.308Z,17.29
2022-12-09T19:53:11.995Z,17.35
2022-12-09T19:55:43.644Z,17.62
2022-12-09T19:58:15.675Z,17.28
2022-12-09T20:00:47.289Z,18.58
2022-12-09T20:03:19.087Z,18.49
2022-12-09T20:05:55.497Z,18.63
2022-12-09T20:08:27.497Z,18.61
2022-12-09T20:10:59.615Z,18.69
2022-12-09T20:13:32.269Z,18.28
2022-12-09T20:16:05.480Z,18.13
2022-12-09T20:18:38.342Z,18.85
2022-12-09T20:21:12.395Z,19.30
2022-12-09T20:23:45.701Z,19.05
2022-12-09T20:26:21.746Z,18.72
2022-12-09T20:28:56.319Z,18.73
2022-12-09T20:31:30.966Z,18.18
2022-12-09T20:34:11.582Z,18.47
2022-12-09T20:36:45.257Z,17.58
2022-12-09T20:39:20.350Z,19.00
2022-12-09T20:41:52.082Z,18.17
2022-12-09T20:44:24.143Z,18.32
2022-12-09T20:46:56.080Z,18.31
2022-12-09T20:49:28.525Z,17.89
2022-12-09T20:52:00.185Z,20.21
2022-12-09T20:54:32.141Z,19.78
2022-12-09T20:57:03.870Z,20.10
2022-12-09T20:59:35.757Z,20.05
2022-12-09T21:02:13.807Z,19.24
2022-12-09T21:04:45.901Z,18.98
2022-12-09T21:07:18.258Z,19.91
2022-12-09T21:09:50.517Z,19.13
2022-12-09T21:12:22.329Z,20.70
2022-12-09T21:14:57.516Z,20.23
2022-12-09T21:17:29.942Z,19.95
2022-12-09T21:20:02.942Z,20.07
2022-12-09T21:22:34.860Z,20.44
2022-12-09T21:25:07.875Z,20.44
2022-12-09T21:27:40.142Z,20.75
2022-12-09T21:30:12.663Z,20.62
2022-12-09T21:32:44.585Z,21.09
2022-12-09T21:35:17.333Z,22.37
2022-12-09T21:37:54.585Z,21.71
2022-12-09T21:40:28.857Z,21.44
2022-12-09T21:43:04.534Z,21.24
2022-12-09T21:45:37.098Z,21.18
2022-12-09T21:48:09.098Z,20.84
2022-12-09T21:50:41.078Z,20.36
2022-12-09T21:53:13.813Z,20.39
2022-12-09T21:55:45.744Z,20.49
2022-12-09T21:58:18.074Z,21.88
2022-12-09T22:00:49.677Z,21.65
2022-12-09T22:03:21.285Z,21.69
2022-12-09T22:05:58.125Z,22.05
2022-12-09T22:08:33.519Z,23.76
2022-12-09T22:11:15.830Z,23.67
2022-12-09T22:13:47.859Z,23.06
2022-12-09T22:16:25.461Z,23.38
2022-12-09T22:18:59.270Z,23.22
2022-12-09T22:21:32.229Z,23.58
2022-12-09T22:24:06.895Z,22.96
2022-12-09T22:26:40.883Z,22.11
2022-12-09T22:29:15.572Z,21.93
2022-12-09T22:31:47.380Z,22.75
2022-12-09T22:34:20.346Z,22.17
2022-12-09T22:36:54.136Z,22.11
2022-12-09T22:39:25.679Z,22.11
2022-12-09T22:41:57.775Z,22.74
2022-12-09T22:44:29.350Z,23.39
2022-12-09T22:47:00.931Z,23.41
2022-12-09T22:49:32.666Z,24.32
2022-12-09T22:52:04.387Z,23.51
2022-12-09T22:54:36.045Z,23.70
2022-12-09T22:57:07.566Z,24.71
2022-12-09T22:59:42.898Z,24.42
2022-12-09T23:02:14.869Z,23.95
2022-12-09T23:04:46.601Z,25.12
2022-12-09T23:07:18.140Z,24.61
2022-12-09T23:09:49.721Z,25.18
2022-12-09T23:12:21.263Z,26.53
2022-12-09T23:14:52.884Z,26.72
2022-12-09T23:17:24.461Z,27.14
2022-12-09T23:19:56.036Z,27.36
2022-12-09T23:22:27.979Z,27.29
2022-12-09T23:24:59.486Z,28.17
2022-12-09T23:27:31.055Z,28.89
2022-12-09T23:30:02.984Z,29.12
2022-12-09T23:32:34.513Z,29.86
2022-12-09T23:35:07.667Z,29.74
2022-12-09T23:37:39.499Z,30.42
2022-12-09T23:40:11.387Z,31.56
2022-12-09T23:42:42.989Z,30.85
2022-12-09T23:45:14.677Z,30.95
2022-12-09T23:47:46.204Z,30.99
2022-12-09T23:50:17.831Z,30.75
2022-12-09T23:52:49.375Z,31.81
2022-12-09T23:55:20.915Z,31.33
2022-12-09T23:57:52.518Z,30.51
